sensor_id;sensor_type;location;lat;lon;timestamp;P1;durP1;ratioP1;P2;durP2;ratioP2
67227;SDS011;54139;42.616;23.748;2023-07-16T00:00:06;5.10;;;3.83;;
67227;SDS011;54139;42.616;23.748;2023-07-16T00:02:34;5.90;;;3.13;;
67227;SDS011;54139;42.616;23.748;2023-07-16T00:05:01;7.10;;;3.63;;
67227;SDS011;54139;42.616;23.748;2023-07-16T00:07:26;6.88;;;3.25;;
67227;SDS011;54139;42.616;23.748;2023-07-16T00:09:52;3.95;;;3.53;;
67227;SDS011;54139;42.616;23.748;2023-07-16T00:12:17;4.88;;;3.45;;
67227;SDS011;54139;42.616;23.748;2023-07-16T00:14:43;3.75;;;3.45;;
67227;SDS011;54139;42.616;23.748;2023-07-16T00:17:08;5.13;;;3.88;;
67227;SDS011;54139;42.616;23.748;2023-07-16T00:19:33;8.20;;;3.60;;
67227;SDS011;54139;42.616;23.748;2023-07-16T00:21:59;3.95;;;3.20;;
67227;SDS011;54139;42.616;23.748;2023-07-16T00:24:24;3.65;;;2.72;;
67227;SDS011;54139;42.616;23.748;2023-07-16T00:26:50;3.15;;;2.90;;
67227;SDS011;54139;42.616;23.748;2023-07-16T00:29:15;3.47;;;3.17;;
67227;SDS011;54139;42.616;23.748;2023-07-16T00:31:41;5.93;;;3.10;;
67227;SDS011;54139;42.616;23.748;2023-07-16T00:34:06;6.93;;;3.50;;
67227;SDS011;54139;42.616;23.748;2023-07-16T00:36:32;4.00;;;3.35;;
67227;SDS011;54139;42.616;23.748;2023-07-16T00:38:57;4.95;;;3.67;;
67227;SDS011;54139;42.616;23.748;2023-07-16T00:41:23;4.45;;;3.40;;
67227;SDS011;54139;42.616;23.748;2023-07-16T00:43:48;6.65;;;3.05;;
67227;SDS011;54139;42.616;23.748;2023-07-16T00:46:13;3.60;;;2.97;;
67227;SDS011;54139;42.616;23.748;2023-07-16T00:48:40;5.38;;;2.78;;
67227;SDS011;54139;42.616;23.748;2023-07-16T00:51:05;2.97;;;2.70;;
67227;SDS011;54139;42.616;23.748;2023-07-16T00:53:31;6.78;;;3.28;;
67227;SDS011;54139;42.616;23.748;2023-07-16T00:55:56;3.40;;;3.10;;
67227;SDS011;54139;42.616;23.748;2023-07-16T00:58:22;4.22;;;3.13;;
67227;SDS011;54139;42.616;23.748;2023-07-16T01:00:47;5.65;;;3.92;;
67227;SDS011;54139;42.616;23.748;2023-07-16T01:03:14;3.47;;;3.17;;
67227;SDS011;54139;42.616;23.748;2023-07-16T01:08:38;3.88;;;3.58;;
67227;SDS011;54139;42.616;23.748;2023-07-16T01:11:07;5.18;;;3.47;;
67227;SDS011;54139;42.616;23.748;2023-07-16T01:13:32;3.85;;;3.42;;
67227;SDS011;54139;42.616;23.748;2023-07-16T01:15:58;5.63;;;3.33;;
67227;SDS011;54139;42.616;23.748;2023-07-16T01:18:23;5.75;;;3.20;;
67227;SDS011;54139;42.616;23.748;2023-07-16T01:20:50;3.95;;;3.33;;
67227;SDS011;54139;42.616;23.748;2023-07-16T01:29:11;5.43;;;3.85;;
67227;SDS011;54139;42.616;23.748;2023-07-16T01:31:41;4.55;;;3.35;;
67227;SDS011;54139;42.616;23.748;2023-07-16T01:34:07;4.72;;;3.67;;
67227;SDS011;54139;42.616;23.748;2023-07-16T01:36:33;4.88;;;4.45;;
67227;SDS011;54139;42.616;23.748;2023-07-16T01:38:59;8.60;;;4.72;;
67227;SDS011;54139;42.616;23.748;2023-07-16T01:41:25;6.65;;;4.00;;
67227;SDS011;54139;42.616;23.748;2023-07-16T01:43:50;6.45;;;3.92;;
67227;SDS011;54139;42.616;23.748;2023-07-16T01:46:16;7.20;;;3.70;;
67227;SDS011;54139;42.616;23.748;2023-07-16T01:48:43;3.95;;;3.65;;
67227;SDS011;54139;42.616;23.748;2023-07-16T01:51:08;8.80;;;4.38;;
67227;SDS011;54139;42.616;23.748;2023-07-16T01:53:34;5.47;;;3.70;;
67227;SDS011;54139;42.616;23.748;2023-07-16T01:56:02;4.28;;;3.97;;
67227;SDS011;54139;42.616;23.748;2023-07-16T01:58:28;4.38;;;3.97;;
67227;SDS011;54139;42.616;23.748;2023-07-16T02:00:54;5.05;;;4.53;;
67227;SDS011;54139;42.616;23.748;2023-07-16T02:03:19;4.63;;;4.18;;
67227;SDS011;54139;42.616;23.748;2023-07-16T02:05:45;5.35;;;4.85;;
67227;SDS011;54139;42.616;23.748;2023-07-16T02:08:10;7.47;;;6.22;;
67227;SDS011;54139;42.616;23.748;2023-07-16T02:10:36;7.47;;;6.50;;
67227;SDS011;54139;42.616;23.748;2023-07-16T02:13:01;7.95;;;6.30;;
67227;SDS011;54139;42.616;23.748;2023-07-16T02:15:26;7.47;;;6.40;;
67227;SDS011;54139;42.616;23.748;2023-07-16T02:17:52;6.70;;;5.28;;
67227;SDS011;54139;42.616;23.748;2023-07-16T02:20:18;6.15;;;5.65;;
67227;SDS011;54139;42.616;23.748;2023-07-16T02:22:43;7.32;;;4.85;;
67227;SDS011;54139;42.616;23.748;2023-07-16T02:25:09;7.45;;;5.30;;
67227;SDS011;54139;42.616;23.748;2023-07-16T02:27:34;5.45;;;5.05;;
67227;SDS011;54139;42.616;23.748;2023-07-16T02:30:00;5.07;;;4.22;;
67227;SDS011;54139;42.616;23.748;2023-07-16T02:32:25;5.20;;;4.80;;
67227;SDS011;54139;42.616;23.748;2023-07-16T02:34:51;5.95;;;5.05;;
67227;SDS011;54139;42.616;23.748;2023-07-16T02:37:16;4.32;;;3.95;;
67227;SDS011;54139;42.616;23.748;2023-07-16T02:39:43;5.78;;;4.32;;
67227;SDS011;54139;42.616;23.748;2023-07-16T02:42:10;5.63;;;4.97;;
67227;SDS011;54139;42.616;23.748;2023-07-16T02:44:35;5.75;;;4.10;;
67227;SDS011;54139;42.616;23.748;2023-07-16T02:47:08;4.28;;;3.88;;
67227;SDS011;54139;42.616;23.748;2023-07-16T02:49:33;3.83;;;3.45;;
67227;SDS011;54139;42.616;23.748;2023-07-16T02:51:59;4.53;;;3.92;;
67227;SDS011;54139;42.616;23.748;2023-07-16T02:54:24;5.15;;;4.20;;
67227;SDS011;54139;42.616;23.748;2023-07-16T02:56:50;4.78;;;4.32;;
67227;SDS011;54139;42.616;23.748;2023-07-16T02:59:15;4.13;;;3.72;;
67227;SDS011;54139;42.616;23.748;2023-07-16T03:01:40;5.80;;;4.10;;
67227;SDS011;54139;42.616;23.748;2023-07-16T03:04:06;5.75;;;3.88;;
67227;SDS011;54139;42.616;23.748;2023-07-16T03:06:31;4.53;;;4.13;;
67227;SDS011;54139;42.616;23.748;2023-07-16T03:08:57;3.67;;;3.38;;
67227;SDS011;54139;42.616;23.748;2023-07-16T03:11:22;6.88;;;3.67;;
67227;SDS011;54139;42.616;23.748;2023-07-16T03:13:48;5.55;;;3.53;;
67227;SDS011;54139;42.616;23.748;2023-07-16T03:16:13;4.13;;;3.72;;
67227;SDS011;54139;42.616;23.748;2023-07-16T03:18:39;4.82;;;3.83;;
67227;SDS011;54139;42.616;23.748;2023-07-16T03:21:04;4.57;;;3.17;;
67227;SDS011;54139;42.616;23.748;2023-07-16T03:23:30;4.22;;;3.83;;
67227;SDS011;54139;42.616;23.748;2023-07-16T03:25:55;5.25;;;3.83;;
67227;SDS011;54139;42.616;23.748;2023-07-16T03:28:21;3.90;;;3.58;;
67227;SDS011;54139;42.616;23.748;2023-07-16T03:30:47;3.35;;;3.05;;
67227;SDS011;54139;42.616;23.748;2023-07-16T03:33:13;3.67;;;3.35;;
67227;SDS011;54139;42.616;23.748;2023-07-16T03:35:39;3.65;;;2.67;;
67227;SDS011;54139;42.616;23.748;2023-07-16T03:38:04;3.28;;;3.08;;
67227;SDS011;54139;42.616;23.748;2023-07-16T03:40:30;3.50;;;3.20;;
67227;SDS011;54139;42.616;23.748;2023-07-16T03:42:55;6.40;;;2.75;;
67227;SDS011;54139;42.616;23.748;2023-07-16T03:45:21;3.45;;;3.13;;
67227;SDS011;54139;42.616;23.748;2023-07-16T03:47:47;2.90;;;2.60;;
67227;SDS011;54139;42.616;23.748;2023-07-16T03:50:12;2.83;;;2.47;;
67227;SDS011;54139;42.616;23.748;2023-07-16T03:52:38;3.70;;;2.38;;
67227;SDS011;54139;42.616;23.748;2023-07-16T03:55:03;5.78;;;2.50;;
67227;SDS011;54139;42.616;23.748;2023-07-16T03:57:29;5.10;;;2.55;;
67227;SDS011;54139;42.616;23.748;2023-07-16T03:59:55;2.97;;;2.38;;
67227;SDS011;54139;42.616;23.748;2023-07-16T04:02:20;3.92;;;2.33;;
67227;SDS011;54139;42.616;23.748;2023-07-16T04:04:46;1.98;;;1.80;;
67227;SDS011;54139;42.616;23.748;2023-07-16T04:07:11;2.22;;;1.95;;
67227;SDS011;54139;42.616;23.748;2023-07-16T04:09:37;2.33;;;2.15;;
67227;SDS011;54139;42.616;23.748;2023-07-16T04:12:04;4.45;;;2.22;;
67227;SDS011;54139;42.616;23.748;2023-07-16T04:14:30;2.35;;;1.88;;
67227;SDS011;54139;42.616;23.748;2023-07-16T04:16:55;3.50;;;2.47;;
67227;SDS011;54139;42.616;23.748;2023-07-16T04:19:21;2.28;;;2.13;;
67227;SDS011;54139;42.616;23.748;2023-07-16T04:21:46;5.65;;;2.03;;
67227;SDS011;54139;42.616;23.748;2023-07-16T04:24:12;2.45;;;1.70;;
67227;SDS011;54139;42.616;23.748;2023-07-16T04:26:37;3.28;;;1.80;;
67227;SDS011;54139;42.616;23.748;2023-07-16T04:29:02;2.35;;;2.13;;
67227;SDS011;54139;42.616;23.748;2023-07-16T04:31:28;3.25;;;2.08;;
67227;SDS011;54139;42.616;23.748;2023-07-16T04:33:53;2.70;;;2.03;;
67227;SDS011;54139;42.616;23.748;2023-07-16T04:36:19;5.10;;;1.90;;
67227;SDS011;54139;42.616;23.748;2023-07-16T04:38:44;2.90;;;2.10;;
67227;SDS011;54139;42.616;23.748;2023-07-16T04:41:10;4.68;;;1.80;;
67227;SDS011;54139;42.616;23.748;2023-07-16T04:43:37;1.58;;;1.48;;
67227;SDS011;54139;42.616;23.748;2023-07-16T04:46:03;1.63;;;1.52;;
67227;SDS011;54139;42.616;23.748;2023-07-16T04:48:29;2.50;;;1.88;;
67227;SDS011;54139;42.616;23.748;2023-07-16T04:50:54;1.80;;;1.65;;
67227;SDS011;54139;42.616;23.748;2023-07-16T04:53:20;2.25;;;1.55;;
67227;SDS011;54139;42.616;23.748;2023-07-16T04:55:46;3.60;;;1.63;;
67227;SDS011;54139;42.616;23.748;2023-07-16T04:58:11;3.03;;;1.50;;
67227;SDS011;54139;42.616;23.748;2023-07-16T05:00:37;1.95;;;1.85;;
67227;SDS011;54139;42.616;23.748;2023-07-16T05:03:02;3.25;;;1.60;;
67227;SDS011;54139;42.616;23.748;2023-07-16T05:05:28;2.85;;;1.95;;
67227;SDS011;54139;42.616;23.748;2023-07-16T05:07:53;1.80;;;1.70;;
67227;SDS011;54139;42.616;23.748;2023-07-16T05:10:19;2.13;;;1.90;;
67227;SDS011;54139;42.616;23.748;2023-07-16T05:12:44;2.88;;;1.75;;
67227;SDS011;54139;42.616;23.748;2023-07-16T05:15:10;3.20;;;1.80;;
67227;SDS011;54139;42.616;23.748;2023-07-16T05:17:35;2.15;;;1.95;;
67227;SDS011;54139;42.616;23.748;2023-07-16T05:20:01;1.85;;;1.73;;
67227;SDS011;54139;42.616;23.748;2023-07-16T05:22:27;2.00;;;1.60;;
67227;SDS011;54139;42.616;23.748;2023-07-16T05:24:52;2.00;;;1.75;;
67227;SDS011;54139;42.616;23.748;2023-07-16T05:27:18;4.63;;;1.80;;
67227;SDS011;54139;42.616;23.748;2023-07-16T05:29:43;1.92;;;1.50;;
67227;SDS011;54139;42.616;23.748;2023-07-16T05:32:09;3.15;;;1.75;;
67227;SDS011;54139;42.616;23.748;2023-07-16T05:34:34;2.58;;;1.98;;
67227;SDS011;54139;42.616;23.748;2023-07-16T05:37:00;2.92;;;1.88;;
67227;SDS011;54139;42.616;23.748;2023-07-16T05:39:25;3.83;;;1.60;;
67227;SDS011;54139;42.616;23.748;2023-07-16T05:41:50;3.63;;;1.83;;
67227;SDS011;54139;42.616;23.748;2023-07-16T05:44:16;2.25;;;1.88;;
67227;SDS011;54139;42.616;23.748;2023-07-16T05:46:41;2.67;;;1.70;;
67227;SDS011;54139;42.616;23.748;2023-07-16T05:49:07;1.70;;;1.60;;
67227;SDS011;54139;42.616;23.748;2023-07-16T05:51:32;3.53;;;1.80;;
67227;SDS011;54139;42.616;23.748;2023-07-16T05:53:58;3.03;;;2.00;;
67227;SDS011;54139;42.616;23.748;2023-07-16T05:56:23;3.80;;;1.60;;
67227;SDS011;54139;42.616;23.748;2023-07-16T05:58:49;1.30;;;1.20;;
67227;SDS011;54139;42.616;23.748;2023-07-16T06:01:14;2.43;;;1.60;;
67227;SDS011;54139;42.616;23.748;2023-07-16T06:03:40;2.17;;;1.87;;
67227;SDS011;54139;42.616;23.748;2023-07-16T06:06:05;3.70;;;1.70;;
67227;SDS011;54139;42.616;23.748;2023-07-16T06:08:33;1.58;;;1.42;;
67227;SDS011;54139;42.616;23.748;2023-07-16T06:10:59;1.97;;;1.40;;
67227;SDS011;54139;42.616;23.748;2023-07-16T06:13:24;2.93;;;1.40;;
67227;SDS011;54139;42.616;23.748;2023-07-16T06:15:49;1.97;;;1.70;;
67227;SDS011;54139;42.616;23.748;2023-07-16T06:18:15;2.10;;;1.90;;
67227;SDS011;54139;42.616;23.748;2023-07-16T06:20:44;2.22;;;2.00;;
67227;SDS011;54139;42.616;23.748;2023-07-16T06:23:10;3.15;;;1.70;;
67227;SDS011;54139;42.616;23.748;2023-07-16T06:25:36;4.32;;;1.73;;
67227;SDS011;54139;42.616;23.748;2023-07-16T06:28:02;2.80;;;1.98;;
67227;SDS011;54139;42.616;23.748;2023-07-16T06:30:28;2.45;;;2.25;;
67227;SDS011;54139;42.616;23.748;2023-07-16T06:32:55;9.18;;;2.17;;
67227;SDS011;54139;42.616;23.748;2023-07-16T06:35:21;2.00;;;1.77;;
67227;SDS011;54139;42.616;23.748;2023-07-16T06:37:46;2.65;;;2.33;;
67227;SDS011;54139;42.616;23.748;2023-07-16T06:40:12;1.85;;;1.60;;
67227;SDS011;54139;42.616;23.748;2023-07-16T06:42:38;4.00;;;2.20;;
67227;SDS011;54139;42.616;23.748;2023-07-16T06:45:03;4.67;;;1.83;;
67227;SDS011;54139;42.616;23.748;2023-07-16T06:47:29;2.95;;;2.08;;
67227;SDS011;54139;42.616;23.748;2023-07-16T06:49:54;2.40;;;2.20;;
67227;SDS011;54139;42.616;23.748;2023-07-16T06:52:23;1.90;;;1.77;;
67227;SDS011;54139;42.616;23.748;2023-07-16T06:54:53;2.47;;;2.03;;
67227;SDS011;54139;42.616;23.748;2023-07-16T06:57:19;4.72;;;1.88;;
67227;SDS011;54139;42.616;23.748;2023-07-16T06:59:44;2.45;;;2.25;;
67227;SDS011;54139;42.616;23.748;2023-07-16T07:02:10;4.45;;;1.67;;
67227;SDS011;54139;42.616;23.748;2023-07-16T07:04:35;2.38;;;2.17;;
67227;SDS011;54139;42.616;23.748;2023-07-16T07:07:01;4.32;;;2.10;;
67227;SDS011;54139;42.616;23.748;2023-07-16T07:09:26;3.78;;;2.35;;
67227;SDS011;54139;42.616;23.748;2023-07-16T07:11:52;3.50;;;1.98;;
67227;SDS011;54139;42.616;23.748;2023-07-16T07:14:17;5.28;;;2.38;;
67227;SDS011;54139;42.616;23.748;2023-07-16T07:16:43;3.03;;;2.38;;
67227;SDS011;54139;42.616;23.748;2023-07-16T07:19:08;5.53;;;2.45;;
67227;SDS011;54139;42.616;23.748;2023-07-16T07:21:34;5.88;;;2.53;;
67227;SDS011;54139;42.616;23.748;2023-07-16T07:23:59;2.83;;;2.55;;
67227;SDS011;54139;42.616;23.748;2023-07-16T07:26:25;6.93;;;2.30;;
67227;SDS011;54139;42.616;23.748;2023-07-16T07:28:50;6.95;;;2.13;;
67227;SDS011;54139;42.616;23.748;2023-07-16T07:31:16;4.88;;;2.55;;
67227;SDS011;54139;42.616;23.748;2023-07-16T07:33:41;6.20;;;2.20;;
67227;SDS011;54139;42.616;23.748;2023-07-16T07:36:07;2.58;;;2.38;;
67227;SDS011;54139;42.616;23.748;2023-07-16T07:38:32;4.05;;;2.28;;
67227;SDS011;54139;42.616;23.748;2023-07-16T07:40:58;2.38;;;2.15;;
67227;SDS011;54139;42.616;23.748;2023-07-16T07:43:23;5.40;;;2.40;;
67227;SDS011;54139;42.616;23.748;2023-07-16T07:45:49;4.38;;;2.42;;
67227;SDS011;54139;42.616;23.748;2023-07-16T07:48:14;2.85;;;2.30;;
67227;SDS011;54139;42.616;23.748;2023-07-16T07:50:39;4.72;;;2.35;;
67227;SDS011;54139;42.616;23.748;2023-07-16T07:53:05;3.40;;;2.92;;
67227;SDS011;54139;42.616;23.748;2023-07-16T07:55:31;2.92;;;2.72;;
67227;SDS011;54139;42.616;23.748;2023-07-16T07:57:57;3.55;;;2.50;;
67227;SDS011;54139;42.616;23.748;2023-07-16T08:00:22;3.30;;;2.38;;
67227;SDS011;54139;42.616;23.748;2023-07-16T08:02:47;3.92;;;2.58;;
67227;SDS011;54139;42.616;23.748;2023-07-16T08:05:13;4.43;;;2.17;;
67227;SDS011;54139;42.616;23.748;2023-07-16T08:07:38;4.03;;;2.47;;
67227;SDS011;54139;42.616;23.748;2023-07-16T08:10:04;3.13;;;2.83;;
67227;SDS011;54139;42.616;23.748;2023-07-16T08:12:29;3.75;;;2.25;;
67227;SDS011;54139;42.616;23.748;2023-07-16T08:14:57;4.45;;;2.72;;
67227;SDS011;54139;42.616;23.748;2023-07-16T08:17:22;3.15;;;2.85;;
67227;SDS011;54139;42.616;23.748;2023-07-16T08:19:48;2.67;;;2.40;;
67227;SDS011;54139;42.616;23.748;2023-07-16T08:22:13;4.95;;;3.03;;
67227;SDS011;54139;42.616;23.748;2023-07-16T08:24:39;6.50;;;2.88;;
67227;SDS011;54139;42.616;23.748;2023-07-16T08:27:04;4.10;;;2.92;;
67227;SDS011;54139;42.616;23.748;2023-07-16T08:29:30;3.40;;;3.10;;
67227;SDS011;54139;42.616;23.748;2023-07-16T08:31:56;3.30;;;2.97;;
67227;SDS011;54139;42.616;23.748;2023-07-16T08:34:21;4.82;;;3.72;;
67227;SDS011;54139;42.616;23.748;2023-07-16T08:36:47;4.97;;;2.75;;
67227;SDS011;54139;42.616;23.748;2023-07-16T08:39:12;4.63;;;3.45;;
67227;SDS011;54139;42.616;23.748;2023-07-16T08:41:38;4.50;;;3.22;;
67227;SDS011;54139;42.616;23.748;2023-07-16T08:44:04;3.80;;;3.28;;
67227;SDS011;54139;42.616;23.748;2023-07-16T08:46:29;4.15;;;3.33;;
67227;SDS011;54139;42.616;23.748;2023-07-16T08:48:55;3.97;;;3.10;;
67227;SDS011;54139;42.616;23.748;2023-07-16T08:51:22;5.00;;;3.63;;
67227;SDS011;54139;42.616;23.748;2023-07-16T08:53:48;6.70;;;3.78;;
67227;SDS011;54139;42.616;23.748;2023-07-16T08:56:14;6.00;;;4.10;;
67227;SDS011;54139;42.616;23.748;2023-07-16T08:58:40;7.10;;;3.83;;
67227;SDS011;54139;42.616;23.748;2023-07-16T09:01:06;6.57;;;3.97;;
67227;SDS011;54139;42.616;23.748;2023-07-16T09:03:32;6.22;;;3.67;;
67227;SDS011;54139;42.616;23.748;2023-07-16T09:05:58;6.43;;;3.83;;
67227;SDS011;54139;42.616;23.748;2023-07-16T09:08:23;8.30;;;3.85;;
67227;SDS011;54139;42.616;23.748;2023-07-16T09:10:56;5.18;;;4.55;;
67227;SDS011;54139;42.616;23.748;2023-07-16T09:13:22;3.90;;;3.60;;
67227;SDS011;54139;42.616;23.748;2023-07-16T09:15:52;4.05;;;3.65;;
67227;SDS011;54139;42.616;23.748;2023-07-16T09:18:22;5.03;;;4.30;;
67227;SDS011;54139;42.616;23.748;2023-07-16T09:20:59;10.38;;;4.85;;
67227;SDS011;54139;42.616;23.748;2023-07-16T09:23:29;5.17;;;4.53;;
67227;SDS011;54139;42.616;23.748;2023-07-16T09:25:55;5.85;;;4.05;;
67227;SDS011;54139;42.616;23.748;2023-07-16T09:28:20;5.55;;;3.80;;
67227;SDS011;54139;42.616;23.748;2023-07-16T09:30:46;8.52;;;4.90;;
67227;SDS011;54139;42.616;23.748;2023-07-16T09:33:16;5.32;;;4.10;;
67227;SDS011;54139;42.616;23.748;2023-07-16T09:35:42;9.35;;;4.28;;
67227;SDS011;54139;42.616;23.748;2023-07-16T09:38:08;6.93;;;4.30;;
67227;SDS011;54139;42.616;23.748;2023-07-16T09:40:35;4.30;;;3.90;;
67227;SDS011;54139;42.616;23.748;2023-07-16T09:43:04;5.35;;;4.35;;
67227;SDS011;54139;42.616;23.748;2023-07-16T09:45:31;5.05;;;4.00;;
67227;SDS011;54139;42.616;23.748;2023-07-16T09:47:56;6.47;;;4.10;;
67227;SDS011;54139;42.616;23.748;2023-07-16T09:50:27;5.22;;;4.82;;
67227;SDS011;54139;42.616;23.748;2023-07-16T09:52:55;7.97;;;4.20;;
67227;SDS011;54139;42.616;23.748;2023-07-16T09:55:21;5.47;;;3.72;;
67227;SDS011;54139;42.616;23.748;2023-07-16T09:57:47;6.28;;;4.30;;
67227;SDS011;54139;42.616;23.748;2023-07-16T10:00:14;7.53;;;4.75;;
67227;SDS011;54139;42.616;23.748;2023-07-16T10:02:41;4.82;;;4.32;;
67227;SDS011;54139;42.616;23.748;2023-07-16T10:05:13;5.32;;;4.82;;
67227;SDS011;54139;42.616;23.748;2023-07-16T10:07:43;6.35;;;4.63;;
67227;SDS011;54139;42.616;23.748;2023-07-16T10:10:14;8.10;;;4.47;;
67227;SDS011;54139;42.616;23.748;2023-07-16T10:12:42;4.68;;;4.28;;
67227;SDS011;54139;42.616;23.748;2023-07-16T10:15:08;4.60;;;4.22;;
67227;SDS011;54139;42.616;23.748;2023-07-16T10:17:36;4.75;;;4.38;;
67227;SDS011;54139;42.616;23.748;2023-07-16T10:25:24;4.95;;;4.53;;
67227;SDS011;54139;42.616;23.748;2023-07-16T10:27:51;6.57;;;5.00;;
67227;SDS011;54139;42.616;23.748;2023-07-16T10:30:17;7.75;;;5.32;;
67227;SDS011;54139;42.616;23.748;2023-07-16T10:32:44;8.25;;;5.40;;
67227;SDS011;54139;42.616;23.748;2023-07-16T10:35:10;11.05;;;5.25;;
67227;SDS011;54139;42.616;23.748;2023-07-16T10:37:36;7.25;;;4.80;;
67227;SDS011;54139;42.616;23.748;2023-07-16T10:40:03;5.93;;;5.38;;
67227;SDS011;54139;42.616;23.748;2023-07-16T10:42:29;5.13;;;4.63;;
67227;SDS011;54139;42.616;23.748;2023-07-16T10:44:58;5.68;;;5.18;;
67227;SDS011;54139;42.616;23.748;2023-07-16T10:49:59;8.57;;;5.15;;
67227;SDS011;54139;42.616;23.748;2023-07-16T10:52:25;7.03;;;5.55;;
67227;SDS011;54139;42.616;23.748;2023-07-16T10:54:51;7.30;;;5.43;;
67227;SDS011;54139;42.616;23.748;2023-07-16T10:57:19;10.93;;;5.35;;
67227;SDS011;54139;42.616;23.748;2023-07-16T10:59:45;7.75;;;5.72;;
67227;SDS011;54139;42.616;23.748;2023-07-16T11:02:12;6.60;;;5.18;;
67227;SDS011;54139;42.616;23.748;2023-07-16T11:04:38;8.13;;;5.43;;
67227;SDS011;54139;42.616;23.748;2023-07-16T11:07:08;6.40;;;5.75;;
67227;SDS011;54139;42.616;23.748;2023-07-16T11:09:39;5.72;;;4.88;;
67227;SDS011;54139;42.616;23.748;2023-07-16T11:12:09;8.18;;;6.32;;
67227;SDS011;54139;42.616;23.748;2023-07-16T11:14:36;7.47;;;5.28;;
67227;SDS011;54139;42.616;23.748;2023-07-16T11:17:05;7.13;;;5.00;;
67227;SDS011;54139;42.616;23.748;2023-07-16T11:19:36;5.75;;;5.03;;
67227;SDS011;54139;42.616;23.748;2023-07-16T11:22:02;8.85;;;6.22;;
67227;SDS011;54139;42.616;23.748;2023-07-16T11:24:35;6.22;;;5.10;;
67227;SDS011;54139;42.616;23.748;2023-07-16T11:27:01;9.38;;;5.47;;
67227;SDS011;54139;42.616;23.748;2023-07-16T11:29:33;6.82;;;6.05;;
67227;SDS011;54139;42.616;23.748;2023-07-16T11:31:59;6.63;;;6.05;;
67227;SDS011;54139;42.616;23.748;2023-07-16T11:34:25;7.03;;;5.65;;
67227;SDS011;54139;42.616;23.748;2023-07-16T11:36:50;8.38;;;5.97;;
67227;SDS011;54139;42.616;23.748;2023-07-16T11:39:16;6.28;;;5.68;;
67227;SDS011;54139;42.616;23.748;2023-07-16T11:41:41;8.68;;;5.30;;
67227;SDS011;54139;42.616;23.748;2023-07-16T11:44:07;7.57;;;5.55;;
67227;SDS011;54139;42.616;23.748;2023-07-16T11:46:33;6.07;;;5.47;;
67227;SDS011;54139;42.616;23.748;2023-07-16T11:48:59;6.65;;;5.63;;
67227;SDS011;54139;42.616;23.748;2023-07-16T11:51:25;13.63;;;5.68;;
67227;SDS011;54139;42.616;23.748;2023-07-16T11:53:51;7.40;;;5.38;;
67227;SDS011;54139;42.616;23.748;2023-07-16T11:56:16;5.07;;;4.68;;
67227;SDS011;54139;42.616;23.748;2023-07-16T11:58:41;6.13;;;5.53;;
67227;SDS011;54139;42.616;23.748;2023-07-16T12:01:07;10.63;;;5.43;;
67227;SDS011;54139;42.616;23.748;2023-07-16T12:03:32;6.07;;;5.47;;
67227;SDS011;54139;42.616;23.748;2023-07-16T12:05:58;6.50;;;5.80;;
67227;SDS011;54139;42.616;23.748;2023-07-16T12:08:24;8.50;;;5.32;;
67227;SDS011;54139;42.616;23.748;2023-07-16T12:10:49;6.28;;;5.68;;
67227;SDS011;54139;42.616;23.748;2023-07-16T12:13:15;6.40;;;5.88;;
67227;SDS011;54139;42.616;23.748;2023-07-16T12:15:40;8.68;;;5.57;;
67227;SDS011;54139;42.616;23.748;2023-07-16T12:18:05;5.88;;;5.38;;
67227;SDS011;54139;42.616;23.748;2023-07-16T12:20:31;7.53;;;5.35;;
67227;SDS011;54139;42.616;23.748;2023-07-16T12:22:56;7.30;;;4.95;;
67227;SDS011;54139;42.616;23.748;2023-07-16T12:25:22;11.98;;;5.60;;
67227;SDS011;54139;42.616;23.748;2023-07-16T12:27:47;5.55;;;4.93;;
67227;SDS011;54139;42.616;23.748;2023-07-16T12:30:13;10.27;;;6.03;;
67227;SDS011;54139;42.616;23.748;2023-07-16T12:32:39;6.05;;;5.53;;
67227;SDS011;54139;42.616;23.748;2023-07-16T12:35:04;9.10;;;5.65;;
67227;SDS011;54139;42.616;23.748;2023-07-16T12:37:30;8.05;;;5.78;;
67227;SDS011;54139;42.616;23.748;2023-07-16T12:39:55;5.65;;;5.15;;
67227;SDS011;54139;42.616;23.748;2023-07-16T12:42:21;6.00;;;5.47;;
67227;SDS011;54139;42.616;23.748;2023-07-16T12:44:46;5.85;;;5.18;;
67227;SDS011;54139;42.616;23.748;2023-07-16T12:47:11;5.78;;;5.28;;
67227;SDS011;54139;42.616;23.748;2023-07-16T12:49:37;6.00;;;5.40;;
67227;SDS011;54139;42.616;23.748;2023-07-16T12:52:02;6.70;;;5.20;;
67227;SDS011;54139;42.616;23.748;2023-07-16T12:54:28;6.30;;;5.70;;
67227;SDS011;54139;42.616;23.748;2023-07-16T12:56:54;8.90;;;5.28;;
67227;SDS011;54139;42.616;23.748;2023-07-16T12:59:19;9.90;;;5.22;;
67227;SDS011;54139;42.616;23.748;2023-07-16T13:01:45;6.18;;;5.57;;
67227;SDS011;54139;42.616;23.748;2023-07-16T13:04:10;7.82;;;5.22;;
67227;SDS011;54139;42.616;23.748;2023-07-16T13:06:36;6.07;;;4.95;;
67227;SDS011;54139;42.616;23.748;2023-07-16T13:09:01;6.05;;;5.50;;
67227;SDS011;54139;42.616;23.748;2023-07-16T13:11:26;8.93;;;6.20;;
67227;SDS011;54139;42.616;23.748;2023-07-16T13:13:52;8.13;;;5.50;;
67227;SDS011;54139;42.616;23.748;2023-07-16T13:16:18;6.57;;;5.97;;
67227;SDS011;54139;42.616;23.748;2023-07-16T13:18:43;9.63;;;5.85;;
67227;SDS011;54139;42.616;23.748;2023-07-16T13:21:09;9.40;;;5.45;;
67227;SDS011;54139;42.616;23.748;2023-07-16T13:23:34;5.70;;;5.20;;
67227;SDS011;54139;42.616;23.748;2023-07-16T13:26:00;4.85;;;4.45;;
67227;SDS011;54139;42.616;23.748;2023-07-16T13:28:26;8.70;;;5.30;;
67227;SDS011;54139;42.616;23.748;2023-07-16T13:30:51;6.18;;;5.30;;
67227;SDS011;54139;42.616;23.748;2023-07-16T13:33:18;5.50;;;5.00;;
67227;SDS011;54139;42.616;23.748;2023-07-16T13:35:44;9.55;;;5.55;;
67227;SDS011;54139;42.616;23.748;2023-07-16T13:38:09;7.63;;;5.43;;
67227;SDS011;54139;42.616;23.748;2023-07-16T13:40:35;6.13;;;4.88;;
67227;SDS011;54139;42.616;23.748;2023-07-16T13:43:00;7.18;;;5.43;;
67227;SDS011;54139;42.616;23.748;2023-07-16T13:45:25;7.03;;;4.72;;
67227;SDS011;54139;42.616;23.748;2023-07-16T13:47:51;7.00;;;4.57;;
67227;SDS011;54139;42.616;23.748;2023-07-16T13:50:17;6.68;;;5.28;;
67227;SDS011;54139;42.616;23.748;2023-07-16T13:52:44;5.82;;;5.32;;
67227;SDS011;54139;42.616;23.748;2023-07-16T13:55:09;5.75;;;5.25;;
67227;SDS011;54139;42.616;23.748;2023-07-16T13:57:35;9.93;;;5.43;;
67227;SDS011;54139;42.616;23.748;2023-07-16T14:00:01;6.43;;;5.82;;
67227;SDS011;54139;42.616;23.748;2023-07-16T14:02:29;8.77;;;6.05;;
67227;SDS011;54139;42.616;23.748;2023-07-16T14:04:54;9.25;;;5.10;;
67227;SDS011;54139;42.616;23.748;2023-07-16T14:07:20;8.43;;;5.72;;
67227;SDS011;54139;42.616;23.748;2023-07-16T14:09:45;9.13;;;5.53;;
67227;SDS011;54139;42.616;23.748;2023-07-16T14:12:10;7.07;;;5.35;;
67227;SDS011;54139;42.616;23.748;2023-07-16T14:14:36;6.18;;;5.32;;
67227;SDS011;54139;42.616;23.748;2023-07-16T14:17:01;7.78;;;5.85;;
67227;SDS011;54139;42.616;23.748;2023-07-16T14:19:27;9.57;;;6.30;;
67227;SDS011;54139;42.616;23.748;2023-07-16T14:21:54;10.68;;;5.38;;
67227;SDS011;54139;42.616;23.748;2023-07-16T14:24:20;7.70;;;6.00;;
67227;SDS011;54139;42.616;23.748;2023-07-16T14:26:45;6.13;;;5.60;;
67227;SDS011;54139;42.616;23.748;2023-07-16T14:29:11;5.78;;;5.25;;
67227;SDS011;54139;42.616;23.748;2023-07-16T14:31:37;8.85;;;5.57;;
67227;SDS011;54139;42.616;23.748;2023-07-16T14:34:02;7.63;;;5.95;;
67227;SDS011;54139;42.616;23.748;2023-07-16T14:36:28;6.65;;;5.28;;
67227;SDS011;54139;42.616;23.748;2023-07-16T14:38:53;10.68;;;5.95;;
67227;SDS011;54139;42.616;23.748;2023-07-16T14:41:19;8.05;;;5.93;;